sensor_id;sensor_type;location;lat;lon;timestamp;temperature;humidity
435;DHT22;204;48.942;9.256;2022-07-06T00:01:29;16.70;99.90
435;DHT22;204;48.942;9.256;2022-07-06T00:03:55;16.70;99.90
435;DHT22;204;48.942;9.256;2022-07-06T00:06:22;16.70;99.90
435;DHT22;204;48.942;9.256;2022-07-06T00:08:47;16.60;99.90
435;DHT22;204;48.942;9.256;2022-07-06T00:11:13;16.60;99.90
435;DHT22;204;48.942;9.256;2022-07-06T00:13:39;16.70;99.90
435;DHT22;204;48.942;9.256;2022-07-06T00:16:05;16.60;99.90
435;DHT22;204;48.942;9.256;2022-07-06T00:18:30;16.70;99.90
435;DHT22;204;48.942;9.256;2022-07-06T00:20:56;16.70;99.90
435;DHT22;204;48.942;9.256;2022-07-06T00:23:22;16.70;99.90
435;DHT22;204;48.942;9.256;2022-07-06T00:25:47;16.80;99.90
435;DHT22;204;48.942;9.256;2022-07-06T00:28:13;16.70;99.90
435;DHT22;204;48.942;9.256;2022-07-06T00:30:39;16.70;99.90
435;DHT22;204;48.942;9.256;2022-07-06T00:33:05;16.70;99.90
435;DHT22;204;48.942;9.256;2022-07-06T00:35:30;16.60;99.90
435;DHT22;204;48.942;9.256;2022-07-06T00:37:56;16.60;99.90
435;DHT22;204;48.942;9.256;2022-07-06T00:40:22;16.60;99.90
435;DHT22;204;48.942;9.256;2022-07-06T00:42:48;16.50;99.90
435;DHT22;204;48.942;9.256;2022-07-06T00:45:15;16.50;99.90
435;DHT22;204;48.942;9.256;2022-07-06T00:47:42;16.50;99.90
435;DHT22;204;48.942;9.256;2022-07-06T00:50:10;16.50;99.90
435;DHT22;204;48.942;9.256;2022-07-06T00:52:40;16.50;99.90
435;DHT22;204;48.942;9.256;2022-07-06T00:55:06;16.40;99.90
435;DHT22;204;48.942;9.256;2022-07-06T00:57:31;16.40;99.90
435;DHT22;204;48.942;9.256;2022-07-06T00:59:57;16.30;99.90
435;DHT22;204;48.942;9.256;2022-07-06T01:02:23;16.30;99.90
435;DHT22;204;48.942;9.256;2022-07-06T01:04:49;16.30;99.90
435;DHT22;204;48.942;9.256;2022-07-06T01:07:15;16.20;99.90
435;DHT22;204;48.942;9.256;2022-07-06T01:09:40;16.20;99.90
435;DHT22;204;48.942;9.256;2022-07-06T01:12:06;16.10;99.90
435;DHT22;204;48.942;9.256;2022-07-06T01:14:32;16.10;99.90
435;DHT22;204;48.942;9.256;2022-07-06T01:16:58;16.10;99.90
435;DHT22;204;48.942;9.256;2022-07-06T01:19:24;16.00;99.90
435;DHT22;204;48.942;9.256;2022-07-06T01:21:50;16.10;99.90
435;DHT22;204;48.942;9.256;2022-07-06T01:24:16;16.00;99.90
435;DHT22;204;48.942;9.256;2022-07-06T01:26:41;16.00;99.90
435;DHT22;204;48.942;9.256;2022-07-06T01:29:07;16.00;99.90
435;DHT22;204;48.942;9.256;2022-07-06T01:31:32;16.00;99.90
435;DHT22;204;48.942;9.256;2022-07-06T01:33:58;16.00;99.90
435;DHT22;204;48.942;9.256;2022-07-06T01:36:25;16.00;99.90
435;DHT22;204;48.942;9.256;2022-07-06T01:38:55;15.90;99.90
435;DHT22;204;48.942;9.256;2022-07-06T01:41:23;15.90;99.90
435;DHT22;204;48.942;9.256;2022-07-06T01:43:49;15.80;99.90
435;DHT22;204;48.942;9.256;2022-07-06T01:46:15;15.70;99.90
435;DHT22;204;48.942;9.256;2022-07-06T01:48:41;15.70;99.90
435;DHT22;204;48.942;9.256;2022-07-06T01:51:06;15.70;99.90
435;DHT22;204;48.942;9.256;2022-07-06T01:53:32;15.70;99.90
435;DHT22;204;48.942;9.256;2022-07-06T01:55:58;15.60;99.90
435;DHT22;204;48.942;9.256;2022-07-06T01:58:23;15.70;99.90
435;DHT22;204;48.942;9.256;2022-07-06T02:00:49;15.60;99.90
435;DHT22;204;48.942;9.256;2022-07-06T02:03:15;15.60;99.90
435;DHT22;204;48.942;9.256;2022-07-06T02:05:40;15.50;99.90
435;DHT22;204;48.942;9.256;2022-07-06T02:08:06;15.50;99.90
435;DHT22;204;48.942;9.256;2022-07-06T02:10:32;15.50;99.90
435;DHT22;204;48.942;9.256;2022-07-06T02:12:57;15.40;99.90
435;DHT22;204;48.942;9.256;2022-07-06T02:15:23;15.40;99.90
435;DHT22;204;48.942;9.256;2022-07-06T02:17:48;15.30;99.90
435;DHT22;204;48.942;9.256;2022-07-06T02:20:14;15.20;99.90
435;DHT22;204;48.942;9.256;2022-07-06T02:22:40;15.20;99.90
435;DHT22;204;48.942;9.256;2022-07-06T02:25:05;15.20;99.90
435;DHT22;204;48.942;9.256;2022-07-06T02:27:31;15.10;99.90
435;DHT22;204;48.942;9.256;2022-07-06T02:29:57;15.10;99.90
435;DHT22;204;48.942;9.256;2022-07-06T02:32:23;15.00;99.90
435;DHT22;204;48.942;9.256;2022-07-06T02:34:48;15.00;99.90
435;DHT22;204;48.942;9.256;2022-07-06T02:37:14;15.00;99.90
435;DHT22;204;48.942;9.256;2022-07-06T02:39:40;15.00;99.90
435;DHT22;204;48.942;9.256;2022-07-06T02:42:05;15.00;99.90
435;DHT22;204;48.942;9.256;2022-07-06T02:44:31;14.90;99.90
435;DHT22;204;48.942;9.256;2022-07-06T02:46:57;14.90;99.90
435;DHT22;204;48.942;9.256;2022-07-06T02:49:22;14.90;99.90
435;DHT22;204;48.942;9.256;2022-07-06T02:51:48;14.80;99.90
435;DHT22;204;48.942;9.256;2022-07-06T02:54:13;14.70;99.90
435;DHT22;204;48.942;9.256;2022-07-06T02:56:39;14.70;99.90
435;DHT22;204;48.942;9.256;2022-07-06T02:59:04;14.70;99.90
435;DHT22;204;48.942;9.256;2022-07-06T03:01:30;14.60;99.90
435;DHT22;204;48.942;9.256;2022-07-06T03:03:55;14.60;1.00
435;DHT22;204;48.942;9.256;2022-07-06T03:06:21;14.50;1.00
435;DHT22;204;48.942;9.256;2022-07-06T03:08:46;14.50;1.00
435;DHT22;204;48.942;9.256;2022-07-06T03:11:12;14.50;1.00
435;DHT22;204;48.942;9.256;2022-07-06T03:13:37;14.50;99.90
435;DHT22;204;48.942;9.256;2022-07-06T03:16:03;14.50;99.90
435;DHT22;204;48.942;9.256;2022-07-06T03:18:29;14.50;99.90
435;DHT22;204;48.942;9.256;2022-07-06T03:20:54;14.50;99.90
435;DHT22;204;48.942;9.256;2022-07-06T03:23:20;14.40;99.90
435;DHT22;204;48.942;9.256;2022-07-06T03:25:46;14.40;99.90
435;DHT22;204;48.942;9.256;2022-07-06T03:28:11;14.40;99.90
435;DHT22;204;48.942;9.256;2022-07-06T03:30:37;14.40;99.90
435;DHT22;204;48.942;9.256;2022-07-06T03:33:03;14.30;99.90
435;DHT22;204;48.942;9.256;2022-07-06T03:35:28;14.30;99.90
435;DHT22;204;48.942;9.256;2022-07-06T03:37:54;14.30;99.90
435;DHT22;204;48.942;9.256;2022-07-06T03:40:20;14.30;99.90
435;DHT22;204;48.942;9.256;2022-07-06T03:42:45;14.30;99.90
435;DHT22;204;48.942;9.256;2022-07-06T03:45:11;14.30;99.90
435;DHT22;204;48.942;9.256;2022-07-06T03:47:37;14.30;99.90
435;DHT22;204;48.942;9.256;2022-07-06T03:50:03;14.30;99.90
435;DHT22;204;48.942;9.256;2022-07-06T03:52:29;14.30;99.90
435;DHT22;204;48.942;9.256;2022-07-06T03:54:55;14.30;99.90
435;DHT22;204;48.942;9.256;2022-07-06T03:57:21;14.30;99.90
435;DHT22;204;48.942;9.256;2022-07-06T03:59:47;14.40;99.90
435;DHT22;204;48.942;9.256;2022-07-06T04:02:13;14.40;99.90
435;DHT22;204;48.942;9.256;2022-07-06T04:04:38;14.40;99.90
435;DHT22;204;48.942;9.256;2022-07-06T04:07:04;14.50;99.90
435;DHT22;204;48.942;9.256;2022-07-06T04:09:29;14.60;99.90
435;DHT22;204;48.942;9.256;2022-07-06T04:11:55;14.70;99.90
435;DHT22;204;48.942;9.256;2022-07-06T04:14:21;15.00;99.90
435;DHT22;204;48.942;9.256;2022-07-06T04:16:47;15.30;99.90
435;DHT22;204;48.942;9.256;2022-07-06T04:19:12;15.50;99.90
435;DHT22;204;48.942;9.256;2022-07-06T04:21:38;15.90;99.90
435;DHT22;204;48.942;9.256;2022-07-06T04:24:04;16.30;99.90
435;DHT22;204;48.942;9.256;2022-07-06T04:26:30;16.60;99.90
435;DHT22;204;48.942;9.256;2022-07-06T04:28:55;17.00;99.90
435;DHT22;204;48.942;9.256;2022-07-06T04:31:21;17.60;99.90
435;DHT22;204;48.942;9.256;2022-07-06T04:33:47;18.10;99.90
435;DHT22;204;48.942;9.256;2022-07-06T04:36:12;18.50;99.90
435;DHT22;204;48.942;9.256;2022-07-06T04:38:38;18.90;99.90
435;DHT22;204;48.942;9.256;2022-07-06T04:41:03;19.30;99.90
435;DHT22;204;48.942;9.256;2022-07-06T04:43:29;19.60;99.90
435;DHT22;204;48.942;9.256;2022-07-06T04:45:54;19.90;99.90
435;DHT22;204;48.942;9.256;2022-07-06T04:48:20;20.20;99.90
435;DHT22;204;48.942;9.256;2022-07-06T04:50:46;20.40;99.90
435;DHT22;204;48.942;9.256;2022-07-06T04:53:11;20.40;99.90
435;DHT22;204;48.942;9.256;2022-07-06T04:55:37;20.40;99.90
435;DHT22;204;48.942;9.256;2022-07-06T04:58:03;20.50;99.90
435;DHT22;204;48.942;9.256;2022-07-06T05:00:28;20.70;99.90
435;DHT22;204;48.942;9.256;2022-07-06T05:02:54;20.80;99.90
435;DHT22;204;48.942;9.256;2022-07-06T05:05:20;21.00;99.90
435;DHT22;204;48.942;9.256;2022-07-06T05:07:48;21.00;99.90
435;DHT22;204;48.942;9.256;2022-07-06T05:10:14;21.10;99.90
435;DHT22;204;48.942;9.256;2022-07-06T05:12:40;21.20;99.90
435;DHT22;204;48.942;9.256;2022-07-06T05:15:06;21.30;99.90
435;DHT22;204;48.942;9.256;2022-07-06T05:17:32;21.30;99.90
435;DHT22;204;48.942;9.256;2022-07-06T05:19:58;21.30;99.90
435;DHT22;204;48.942;9.256;2022-07-06T05:22:23;21.40;99.90
435;DHT22;204;48.942;9.256;2022-07-06T05:24:50;21.50;99.90
435;DHT22;204;48.942;9.256;2022-07-06T05:27:15;21.60;99.90
435;DHT22;204;48.942;9.256;2022-07-06T05:29:41;21.70;99.90
435;DHT22;204;48.942;9.256;2022-07-06T05:32:07;21.90;99.90
435;DHT22;204;48.942;9.256;2022-07-06T05:34:33;22.00;99.90
435;DHT22;204;48.942;9.256;2022-07-06T05:37:00;21.90;99.90
435;DHT22;204;48.942;9.256;2022-07-06T05:39:26;21.80;99.90
435;DHT22;204;48.942;9.256;2022-07-06T05:41:52;21.70;99.90
435;DHT22;204;48.942;9.256;2022-07-06T05:44:17;21.50;99.90
435;DHT22;204;48.942;9.256;2022-07-06T05:46:43;21.50;99.90
435;DHT22;204;48.942;9.256;2022-07-06T05:49:08;21.40;99.90
435;DHT22;204;48.942;9.256;2022-07-06T05:51:52;21.40;99.90
435;DHT22;204;48.942;9.256;2022-07-06T05:54:18;21.60;99.90
435;DHT22;204;48.942;9.256;2022-07-06T05:56:46;21.50;99.90
435;DHT22;204;48.942;9.256;2022-07-06T05:59:12;21.60;99.90
435;DHT22;204;48.942;9.256;2022-07-06T06:01:37;21.50;99.90
435;DHT22;204;48.942;9.256;2022-07-06T06:04:03;21.40;99.90
435;DHT22;204;48.942;9.256;2022-07-06T06:06:29;21.30;99.90
435;DHT22;204;48.942;9.256;2022-07-06T06:08:56;21.40;99.90
435;DHT22;204;48.942;9.256;2022-07-06T06:11:22;21.40;99.90
435;DHT22;204;48.942;9.256;2022-07-06T06:13:48;21.40;99.90
435;DHT22;204;48.942;9.256;2022-07-06T06:16:13;21.60;99.90
435;DHT22;204;48.942;9.256;2022-07-06T06:18:43;21.60;99.90
435;DHT22;204;48.942;9.256;2022-07-06T06:21:09;21.50;99.90
435;DHT22;204;48.942;9.256;2022-07-06T06:23:36;21.30;99.90
435;DHT22;204;48.942;9.256;2022-07-06T06:26:01;21.40;99.90
435;DHT22;204;48.942;9.256;2022-07-06T06:28:27;21.50;99.90
435;DHT22;204;48.942;9.256;2022-07-06T06:30:52;21.60;99.90
435;DHT22;204;48.942;9.256;2022-07-06T06:33:20;21.70;99.90
435;DHT22;204;48.942;9.256;2022-07-06T06:35:51;21.90;99.90
435;DHT22;204;48.942;9.256;2022-07-06T06:38:21;22.20;99.90
435;DHT22;204;48.942;9.256;2022-07-06T06:40:47;22.40;99.90
435;DHT22;204;48.942;9.256;2022-07-06T06:43:13;22.70;99.90
435;DHT22;204;48.942;9.256;2022-07-06T06:45:39;23.00;99.90
435;DHT22;204;48.942;9.256;2022-07-06T06:48:06;23.10;99.90
435;DHT22;204;48.942;9.256;2022-07-06T06:50:31;23.20;99.90
435;DHT22;204;48.942;9.256;2022-07-06T06:52:57;23.30;99.90
435;DHT22;204;48.942;9.256;2022-07-06T06:55:22;23.20;99.90
435;DHT22;204;48.942;9.256;2022-07-06T06:57:48;23.10;99.90
435;DHT22;204;48.942;9.256;2022-07-06T07:00:14;23.00;99.90
435;DHT22;204;48.942;9.256;2022-07-06T07:02:40;23.00;99.90
435;DHT22;204;48.942;9.256;2022-07-06T07:05:06;23.00;99.90
435;DHT22;204;48.942;9.256;2022-07-06T07:07:32;23.10;99.90
435;DHT22;204;48.942;9.256;2022-07-06T07:09:58;23.20;99.90
435;DHT22;204;48.942;9.256;2022-07-06T07:12:24;23.30;99.90
435;DHT22;204;48.942;9.256;2022-07-06T07:14:49;23.40;99.90
435;DHT22;204;48.942;9.256;2022-07-06T07:17:15;23.30;99.90
435;DHT22;204;48.942;9.256;2022-07-06T07:19:41;23.30;99.90
435;DHT22;204;48.942;9.256;2022-07-06T07:22:06;23.30;99.90
435;DHT22;204;48.942;9.256;2022-07-06T07:24:32;23.30;99.90
435;DHT22;204;48.942;9.256;2022-07-06T07:26:58;23.20;99.90
435;DHT22;204;48.942;9.256;2022-07-06T07:29:23;23.20;99.90
435;DHT22;204;48.942;9.256;2022-07-06T07:31:49;23.40;99.90
435;DHT22;204;48.942;9.256;2022-07-06T07:34:15;23.40;99.90
435;DHT22;204;48.942;9.256;2022-07-06T07:36:40;23.40;99.90
435;DHT22;204;48.942;9.256;2022-07-06T07:39:06;23.40;99.90
435;DHT22;204;48.942;9.256;2022-07-06T07:41:31;23.40;99.90
435;DHT22;204;48.942;9.256;2022-07-06T07:43:57;23.60;99.90
435;DHT22;204;48.942;9.256;2022-07-06T07:46:23;23.50;99.90
435;DHT22;204;48.942;9.256;2022-07-06T07:48:48;23.50;99.90
435;DHT22;204;48.942;9.256;2022-07-06T07:51:14;23.70;99.90
435;DHT22;204;48.942;9.256;2022-07-06T07:53:39;23.80;99.90
435;DHT22;204;48.942;9.256;2022-07-06T07:56:05;23.70;99.90
435;DHT22;204;48.942;9.256;2022-07-06T07:58:31;23.70;99.90
435;DHT22;204;48.942;9.256;2022-07-06T08:00:56;23.80;99.90
435;DHT22;204;48.942;9.256;2022-07-06T08:03:22;23.90;99.90
435;DHT22;204;48.942;9.256;2022-07-06T08:05:48;23.90;99.90
435;DHT22;204;48.942;9.256;2022-07-06T08:08:14;23.70;99.90
435;DHT22;204;48.942;9.256;2022-07-06T08:10:39;23.70;99.90
435;DHT22;204;48.942;9.256;2022-07-06T08:13:05;23.60;99.90
435;DHT22;204;48.942;9.256;2022-07-06T08:15:33;23.70;99.90
435;DHT22;204;48.942;9.256;2022-07-06T08:17:58;23.80;99.90
435;DHT22;204;48.942;9.256;2022-07-06T08:20:24;23.80;99.90
435;DHT22;204;48.942;9.256;2022-07-06T08:22:50;23.90;99.90
435;DHT22;204;48.942;9.256;2022-07-06T08:25:15;23.90;99.90
435;DHT22;204;48.942;9.256;2022-07-06T08:27:42;24.00;99.90
435;DHT22;204;48.942;9.256;2022-07-06T08:30:08;24.10;99.90
435;DHT22;204;48.942;9.256;2022-07-06T08:32:40;24.10;99.90
435;DHT22;204;48.942;9.256;2022-07-06T08:35:06;24.20;99.90
435;DHT22;204;48.942;9.256;2022-07-06T08:37:32;24.30;99.90
435;DHT22;204;48.942;9.256;2022-07-06T08:39:58;24.20;99.90
435;DHT22;204;48.942;9.256;2022-07-06T08:42:30;24.30;99.90
435;DHT22;204;48.942;9.256;2022-07-06T08:44:58;24.10;99.90
435;DHT22;204;48.942;9.256;2022-07-06T08:47:27;24.10;99.90
435;DHT22;204;48.942;9.256;2022-07-06T08:49:53;24.20;99.90
435;DHT22;204;48.942;9.256;2022-07-06T08:52:19;24.20;99.90
435;DHT22;204;48.942;9.256;2022-07-06T08:54:45;24.30;99.90
435;DHT22;204;48.942;9.256;2022-07-06T08:57:11;24.20;99.90
435;DHT22;204;48.942;9.256;2022-07-06T08:59:38;24.20;99.90
435;DHT22;204;48.942;9.256;2022-07-06T09:02:04;24.30;99.90
435;DHT22;204;48.942;9.256;2022-07-06T09:04:32;24.20;99.90
435;DHT22;204;48.942;9.256;2022-07-06T09:06:59;24.30;99.90
435;DHT22;204;48.942;9.256;2022-07-06T09:09:24;24.40;99.90
435;DHT22;204;48.942;9.256;2022-07-06T09:11:51;24.60;99.90
435;DHT22;204;48.942;9.256;2022-07-06T09:14:18;24.70;99.90
435;DHT22;204;48.942;9.256;2022-07-06T09:16:45;24.70;99.90
435;DHT22;204;48.942;9.256;2022-07-06T09:19:12;24.80;99.90
435;DHT22;204;48.942;9.256;2022-07-06T09:21:39;24.90;99.90
435;DHT22;204;48.942;9.256;2022-07-06T09:24:09;24.90;99.90
435;DHT22;204;48.942;9.256;2022-07-06T09:26:35;25.00;99.90
435;DHT22;204;48.942;9.256;2022-07-06T09:29:01;25.20;99.90
435;DHT22;204;48.942;9.256;2022-07-06T09:31:27;25.30;99.90
435;DHT22;204;48.942;9.256;2022-07-06T09:34:01;25.30;99.90
435;DHT22;204;48.942;9.256;2022-07-06T09:36:43;25.40;99.90
435;DHT22;204;48.942;9.256;2022-07-06T09:39:28;25.40;99.90
435;DHT22;204;48.942;9.256;2022-07-06T09:41:56;25.50;99.90
435;DHT22;204;48.942;9.256;2022-07-06T09:46:52;25.60;99.90
435;DHT22;204;48.942;9.256;2022-07-06T09:49:19;25.60;99.90
435;DHT22;204;48.942;9.256;2022-07-06T09:51:46;25.70;99.90
435;DHT22;204;48.942;9.256;2022-07-06T09:54:12;25.70;99.90
435;DHT22;204;48.942;9.256;2022-07-06T09:56:40;25.70;99.90
435;DHT22;204;48.942;9.256;2022-07-06T09:59:16;25.50;99.90
435;DHT22;204;48.942;9.256;2022-07-06T10:01:42;25.60;99.90
435;DHT22;204;48.942;9.256;2022-07-06T10:04:11;25.70;99.90
435;DHT22;204;48.942;9.256;2022-07-06T10:06:41;25.90;99.90
435;DHT22;204;48.942;9.256;2022-07-06T10:09:09;26.00;99.90
435;DHT22;204;48.942;9.256;2022-07-06T10:11:38;26.10;99.90
435;DHT22;204;48.942;9.256;2022-07-06T10:14:05;26.10;99.90
435;DHT22;204;48.942;9.256;2022-07-06T10:16:31;26.00;99.90
435;DHT22;204;48.942;9.256;2022-07-06T10:19:00;25.90;99.90
435;DHT22;204;48.942;9.256;2022-07-06T10:21:26;25.90;99.90
435;DHT22;204;48.942;9.256;2022-07-06T10:23:53;25.90;99.90
435;DHT22;204;48.942;9.256;2022-07-06T10:26:21;26.00;99.90
435;DHT22;204;48.942;9.256;2022-07-06T10:28:48;26.10;99.90
435;DHT22;204;48.942;9.256;2022-07-06T10:31:15;25.90;99.90
435;DHT22;204;48.942;9.256;2022-07-06T10:33:42;25.90;99.90
435;DHT22;204;48.942;9.256;2022-07-06T10:36:09;25.80;99.90
435;DHT22;204;48.942;9.256;2022-07-06T10:38:35;25.80;99.90
435;DHT22;204;48.942;9.256;2022-07-06T10:41:06;26.00;99.90
435;DHT22;204;48.942;9.256;2022-07-06T10:46:08;26.20;99.90
435;DHT22;204;48.942;9.256;2022-07-06T10:48:38;26.30;99.90
435;DHT22;204;48.942;9.256;2022-07-06T10:51:04;26.00;99.90
435;DHT22;204;48.942;9.256;2022-07-06T10:53:33;25.90;99.90
435;DHT22;204;48.942;9.256;2022-07-06T10:56:02;25.90;99.90
435;DHT22;204;48.942;9.256;2022-07-06T10:58:47;25.90;99.90
435;DHT22;204;48.942;9.256;2022-07-06T11:01:14;26.10;99.90
435;DHT22;204;48.942;9.256;2022-07-06T11:03:50;26.20;99.90
435;DHT22;204;48.942;9.256;2022-07-06T11:06:33;26.20;99.90
435;DHT22;204;48.942;9.256;2022-07-06T11:09:02;26.10;99.90
435;DHT22;204;48.942;9.256;2022-07-06T11:14:01;26.30;99.90
435;DHT22;204;48.942;9.256;2022-07-06T11:17:11;26.40;99.90
435;DHT22;204;48.942;9.256;2022-07-06T11:19:21;26.50;99.90
435;DHT22;204;48.942;9.256;2022-07-06T11:24:22;26.30;99.90
435;DHT22;204;48.942;9.256;2022-07-06T11:26:50;26.20;99.90
435;DHT22;204;48.942;9.256;2022-07-06T11:29:17;26.20;99.90
435;DHT22;204;48.942;9.256;2022-07-06T11:31:45;26.10;99.90
435;DHT22;204;48.942;9.256;2022-07-06T11:34:13;26.10;99.90
435;DHT22;204;48.942;9.256;2022-07-06T11:36:42;26.30;99.90
435;DHT22;204;48.942;9.256;2022-07-06T11:39:08;26.50;99.90
435;DHT22;204;48.942;9.256;2022-07-06T11:41:41;26.60;99.90
435;DHT22;204;48.942;9.256;2022-07-06T11:44:07;26.70;99.90
435;DHT22;204;48.942;9.256;2022-07-06T11:46:34;26.70;99.90
435;DHT22;204;48.942;9.256;2022-07-06T11:49:01;26.60;99.90
435;DHT22;204;48.942;9.256;2022-07-06T11:51:30;26.50;99.90
435;DHT22;204;48.942;9.256;2022-07-06T11:53:58;26.30;99.90
435;DHT22;204;48.942;9.256;2022-07-06T11:56:28;26.30;99.90
435;DHT22;204;48.942;9.256;2022-07-06T11:58:56;26.10;99.90
435;DHT22;204;48.942;9.256;2022-07-06T12:01:23;26.10;99.90
435;DHT22;204;48.942;9.256;2022-07-06T12:03:49;26.20;99.90
435;DHT22;204;48.942;9.256;2022-07-06T12:06:19;26.20;99.90
435;DHT22;204;48.942;9.256;2022-07-06T12:08:50;26.10;99.90
435;DHT22;204;48.942;9.256;2022-07-06T12:11:27;26.00;99.90
435;DHT22;204;48.942;9.256;2022-07-06T12:13:55;25.90;99.90
435;DHT22;204;48.942;9.256;2022-07-06T12:16:21;25.70;99.90
435;DHT22;204;48.942;9.256;2022-07-06T12:18:49;25.70;99.90
435;DHT22;204;48.942;9.256;2022-07-06T12:21:18;25.90;99.90
435;DHT22;204;48.942;9.256;2022-07-06T12:23:49;26.00;99.90
435;DHT22;204;48.942;9.256;2022-07-06T12:26:18;26.10;99.90
435;DHT22;204;48.942;9.256;2022-07-06T12:28:44;26.20;99.90
435;DHT22;204;48.942;9.256;2022-07-06T12:31:10;26.40;99.90
435;DHT22;204;48.942;9.256;2022-07-06T12:33:37;26.50;99.90
435;DHT22;204;48.942;9.256;2022-07-06T12:36:29;26.40;99.90
435;DHT22;204;48.942;9.256;2022-07-06T12:38:55;26.20;99.90
435;DHT22;204;48.942;9.256;2022-07-06T12:44:08;26.00;99.90
435;DHT22;204;48.942;9.256;2022-07-06T12:46:41;25.90;99.90
435;DHT22;204;48.942;9.256;2022-07-06T12:49:18;25.80;99.90
435;DHT22;204;48.942;9.256;2022-07-06T12:57:15;25.90;99.90
435;DHT22;204;48.942;9.256;2022-07-06T13:02:24;26.10;99.90
435;DHT22;204;48.942;9.256;2022-07-06T13:05:02;25.90;99.90
435;DHT22;204;48.942;9.256;2022-07-06T13:07:30;25.90;99.90
435;DHT22;204;48.942;9.256;2022-07-06T13:10:02;25.80;99.90
435;DHT22;204;48.942;9.256;2022-07-06T13:12:28;25.80;99.90
435;DHT22;204;48.942;9.256;2022-07-06T13:14:54;25.70;99.90
435;DHT22;204;48.942;9.256;2022-07-06T13:17:20;25.70;99.90
435;DHT22;204;48.942;9.256;2022-07-06T13:19:45;25.90;99.90
435;DHT22;204;48.942;9.256;2022-07-06T13:22:11;26.10;99.90
435;DHT22;204;48.942;9.256;2022-07-06T13:24:37;26.30;99.90
435;DHT22;204;48.942;9.256;2022-07-06T13:27:03;26.40;99.90
435;DHT22;204;48.942;9.256;2022-07-06T13:29:29;26.40;99.90
435;DHT22;204;48.942;9.256;2022-07-06T13:31:54;26.40;99.90
435;DHT22;204;48.942;9.256;2022-07-06T13:34:20;26.30;99.90
435;DHT22;204;48.942;9.256;2022-07-06T13:36:46;26.30;99.90
435;DHT22;204;48.942;9.256;2022-07-06T13:39:12;26.30;99.90
435;DHT22;204;48.942;9.256;2022-07-06T13:41:37;26.20;99.90
435;DHT22;204;48.942;9.256;2022-07-06T13:44:03;26.10;99.90
435;DHT22;204;48.942;9.256;2022-07-06T13:46:30;26.20;99.90
435;DHT22;204;48.942;9.256;2022-07-06T13:48:58;26.40;99.90
435;DHT22;204;48.942;9.256;2022-07-06T13:51:25;26.50;99.90
435;DHT22;204;48.942;9.256;2022-07-06T13:53:52;26.40;99.90
435;DHT22;204;48.942;9.256;2022-07-06T13:56:18;26.30;99.90
435;DHT22;204;48.942;9.256;2022-07-06T13:58:44;26.10;99.90
435;DHT22;204;48.942;9.256;2022-07-06T14:01:10;26.10;99.90
435;DHT22;204;48.942;9.256;2022-07-06T14:03:35;26.00;99.90
435;DHT22;204;48.942;9.256;2022-07-06T14:06:04;26.00;99.90
435;DHT22;204;48.942;9.256;2022-07-06T14:08:32;25.90;99.90
435;DHT22;204;48.942;9.256;2022-07-06T14:10:58;25.80;99.90
435;DHT22;204;48.942;9.256;2022-07-06T14:13:23;25.70;99.90
435;DHT22;204;48.942;9.256;2022-07-06T14:15:49;25.50;99.90
435;DHT22;204;48.942;9.256;2022-07-06T14:18:16;25.40;99.90
435;DHT22;204;48.942;9.256;2022-07-06T14:20:44;25.20;99.90
435;DHT22;204;48.942;9.256;2022-07-06T14:23:10;25.10;99.90
435;DHT22;204;48.942;9.256;2022-07-06T14:25:37;25.00;99.90
435;DHT22;204;48.942;9.256;2022-07-06T14:28:02;24.90;99.90
435;DHT22;204;48.942;9.256;2022-07-06T14:30:28;24.90;99.90
435;DHT22;204;48.942;9.256;2022-07-06T14:32:54;24.80;99.90
435;DHT22;204;48.942;9.256;2022-07-06T14:35:20;24.80;99.90
435;DHT22;204;48.942;9.256;2022-07-06T14:37:47;24.80;99.90
435;DHT22;204;48.942;9.256;2022-07-06T14:40:12;24.90;99.90
435;DHT22;204;48.942;9.256;2022-07-06T14:42:38;25.00;99.90
435;DHT22;204;48.942;9.256;2022-07-06T14:45:04;24.90;99.90
435;DHT22;204;48.942;9.256;2022-07-06T14:47:29;24.90;99.90
435;DHT22;204;48.942;9.256;2022-07-06T14:49:55;24.90;99.90
435;DHT22;204;48.942;9.256;2022-07-06T14:52:23;24.90;99.90
435;DHT22;204;48.942;9.256;2022-07-06T14:54:49;24.90;99.90
435;DHT22;204;48.942;9.256;2022-07-06T14:57:15;24.90;99.90
435;DHT22;204;48.942;9.256;2022-07-06T14:59:40;24.90;99.90
435;DHT22;204;48.942;9.256;2022-07-06T15:02:06;24.90;99.90
435;DHT22;204;48.942;9.256;2022-07-06T15:04:31;24.90;99.90
435;DHT22;204;48.942;9.256;2022-07-06T15:06:58;24.80;99.90
435;DHT22;204;48.942;9.256;2022-07-06T15:09:24;24.70;99.90
435;DHT22;204;48.942;9.256;2022-07-06T15:11:51;24.50;99.90
435;DHT22;204;48.942;9.256;2022-07-06T15:14:17;24.50;99.90
435;DHT22;204;48.942;9.256;2022-07-06T15:16:43;24.40;99.90
435;DHT22;204;48.942;9.256;2022-07-06T15:19:10;24.40;99.90
435;DHT22;204;48.942;9.256;2022-07-06T15:21:35;24.40;99.90
435;DHT22;204;48.942;9.256;2022-07-06T15:24:01;24.40;99.90
435;DHT22;204;48.942;9.256;2022-07-06T15:26:26;24.50;99.90
435;DHT22;204;48.942;9.256;2022-07-06T15:28:52;24.60;99.90
435;DHT22;204;48.942;9.256;2022-07-06T15:31:18;24.70;99.90
435;DHT22;204;48.942;9.256;2022-07-06T15:33:43;24.80;99.90
435;DHT22;204;48.942;9.256;2022-07-06T15:36:09;24.90;99.90
435;DHT22;204;48.942;9.256;2022-07-06T15:38:36;25.00;99.90
435;DHT22;204;48.942;9.256;2022-07-06T15:41:02;25.10;99.90
435;DHT22;204;48.942;9.256;2022-07-06T15:43:29;25.10;99.90
435;DHT22;204;48.942;9.256;2022-07-06T15:45:57;25.20;99.90
435;DHT22;204;48.942;9.256;2022-07-06T15:48:26;25.30;99.90
435;DHT22;204;48.942;9.256;2022-07-06T15:50:52;25.30;99.90
435;DHT22;204;48.942;9.256;2022-07-06T15:53:19;25.40;99.90
435;DHT22;204;48.942;9.256;2022-07-06T15:55:45;25.40;99.90
435;DHT22;204;48.942;9.256;2022-07-06T15:58:11;25.50;99.90
435;DHT22;204;48.942;9.256;2022-07-06T16:00:37;25.50;99.90
435;DHT22;204;48.942;9.256;2022-07-06T16:03:03;25.50;99.90
435;DHT22;204;48.942;9.256;2022-07-06T16:05:29;25.40;99.90
435;DHT22;204;48.942;9.256;2022-07-06T16:07:54;25.40;99.90
435;DHT22;204;48.942;9.256;2022-07-06T16:10:20;25.40;99.90
435;DHT22;204;48.942;9.256;2022-07-06T16:12:46;25.40;99.90
435;DHT22;204;48.942;9.256;2022-07-06T16:15:11;25.40;99.90
435;DHT22;204;48.942;9.256;2022-07-06T16:17:37;25.40;99.90
435;DHT22;204;48.942;9.256;2022-07-06T16:20:03;25.40;99.90
435;DHT22;204;48.942;9.256;2022-07-06T16:22:29;25.20;99.90
435;DHT22;204;48.942;9.256;2022-07-06T16:24:58;25.10;99.90
435;DHT22;204;48.942;9.256;2022-07-06T16:27:24;24.90;99.90
435;DHT22;204;48.942;9.256;2022-07-06T16:29:50;24.80;99.90
435;DHT22;204;48.942;9.256;2022-07-06T16:32:15;24.80;99.90
435;DHT22;204;48.942;9.256;2022-07-06T16:34:41;24.80;99.90
435;DHT22;204;48.942;9.256;2022-07-06T16:37:06;24.80;99.90
435;DHT22;204;48.942;9.256;2022-07-06T16:39:32;24.70;99.90
435;DHT22;204;48.942;9.256;2022-07-06T16:42:00;24.80;99.90
435;DHT22;204;48.942;9.256;2022-07-06T16:44:26;24.80;99.90
435;DHT22;204;48.942;9.256;2022-07-06T16:46:52;24.70;99.90
435;DHT22;204;48.942;9.256;2022-07-06T16:49:18;24.70;99.90
435;DHT22;204;48.942;9.256;2022-07-06T16:51:43;24.70;99.90